Terminal Aerodrome Forecast
Issued by NWS

Home | Current Version | Previous Version | Text Only | Print | Product List | Glossary On
Versions: 1 2 3 4 5 6 7 8 9 10 11 12
954
FTUS45 KVEF 111120
TAFDAG
TAF
KDAG 111120Z 1112/1212 27008KT P6SM FEW250
     FM112000 07007KT P6SM FEW250
     FM120200 VRB04KT P6SM FEW250
     FM120500 27007KT P6SM FEW250=

USA.gov is the U.S. government's official web portal to all federal, state and local government web resources and services.